sensor_id;sensor_type;location;lat;lon;timestamp;P1;durP1;ratioP1;P2;durP2;ratioP2
56680;SDS011;42558;52.388;13.390;2023-03-16T00:01:46;9.31;;;4.37;;
56680;SDS011;42558;52.388;13.390;2023-03-16T00:04:16;9.69;;;3.80;;
56680;SDS011;42558;52.388;13.390;2023-03-16T00:06:46;12.35;;;4.56;;
56680;SDS011;42558;52.388;13.390;2023-03-16T00:09:15;10.26;;;3.42;;
56680;SDS011;42558;52.388;13.390;2023-03-16T00:11:45;11.59;;;3.80;;
56680;SDS011;42558;52.388;13.390;2023-03-16T00:14:15;11.59;;;4.56;;
56680;SDS011;42558;52.388;13.390;2023-03-16T00:16:45;9.88;;;3.61;;
56680;SDS011;42558;52.388;13.390;2023-03-16T00:19:15;13.11;;;4.56;;
56680;SDS011;42558;52.388;13.390;2023-03-16T00:21:45;10.45;;;3.99;;
56680;SDS011;42558;52.388;13.390;2023-03-16T00:24:15;11.78;;;4.18;;
56680;SDS011;42558;52.388;13.390;2023-03-16T00:26:47;9.88;;;4.18;;
56680;SDS011;42558;52.388;13.390;2023-03-16T00:29:17;9.12;;;3.80;;
56680;SDS011;42558;52.388;13.390;2023-03-16T00:31:47;10.83;;;3.80;;
56680;SDS011;42558;52.388;13.390;2023-03-16T00:34:17;12.16;;;3.80;;
56680;SDS011;42558;52.388;13.390;2023-03-16T00:36:47;11.40;;;3.80;;
56680;SDS011;42558;52.388;13.390;2023-03-16T00:39:17;9.88;;;3.61;;
56680;SDS011;42558;52.388;13.390;2023-03-16T00:41:46;14.06;;;3.61;;
56680;SDS011;42558;52.388;13.390;2023-03-16T00:44:16;13.11;;;3.99;;
56680;SDS011;42558;52.388;13.390;2023-03-16T00:46:43;13.11;;;3.04;;
56680;SDS011;42558;52.388;13.390;2023-03-16T00:49:11;10.83;;;3.42;;
56680;SDS011;42558;52.388;13.390;2023-03-16T00:51:40;9.31;;;3.23;;
56680;SDS011;42558;52.388;13.390;2023-03-16T00:54:13;8.74;;;3.42;;
56680;SDS011;42558;52.388;13.390;2023-03-16T00:56:43;12.73;;;3.61;;
56680;SDS011;42558;52.388;13.390;2023-03-16T00:59:13;8.17;;;3.80;;
56680;SDS011;42558;52.388;13.390;2023-03-16T01:01:44;12.73;;;3.61;;
56680;SDS011;42558;52.388;13.390;2023-03-16T01:04:14;7.41;;;3.04;;
56680;SDS011;42558;52.388;13.390;2023-03-16T01:06:45;12.92;;;3.42;;
56680;SDS011;42558;52.388;13.390;2023-03-16T01:09:15;10.64;;;3.61;;
56680;SDS011;42558;52.388;13.390;2023-03-16T01:11:44;8.17;;;3.42;;
56680;SDS011;42558;52.388;13.390;2023-03-16T01:14:16;14.44;;;3.99;;
56680;SDS011;42558;52.388;13.390;2023-03-16T01:16:44;15.77;;;3.99;;
56680;SDS011;42558;52.388;13.390;2023-03-16T01:19:13;9.69;;;4.37;;
56680;SDS011;42558;52.388;13.390;2023-03-16T01:21:41;14.06;;;4.94;;
56680;SDS011;42558;52.388;13.390;2023-03-16T01:24:10;19.95;;;4.75;;
56680;SDS011;42558;52.388;13.390;2023-03-16T01:26:38;8.93;;;3.23;;
56680;SDS011;42558;52.388;13.390;2023-03-16T01:29:06;17.10;;;4.94;;
56680;SDS011;42558;52.388;13.390;2023-03-16T01:31:35;8.55;;;3.61;;
56680;SDS011;42558;52.388;13.390;2023-03-16T01:34:03;7.79;;;3.80;;
56680;SDS011;42558;52.388;13.390;2023-03-16T01:36:33;10.26;;;3.42;;
56680;SDS011;42558;52.388;13.390;2023-03-16T01:39:00;9.50;;;3.80;;
56680;SDS011;42558;52.388;13.390;2023-03-16T01:41:28;14.25;;;3.99;;
56680;SDS011;42558;52.388;13.390;2023-03-16T01:43:57;11.59;;;4.18;;
56680;SDS011;42558;52.388;13.390;2023-03-16T01:46:27;11.40;;;3.61;;
56680;SDS011;42558;52.388;13.390;2023-03-16T01:49:09;12.54;;;3.61;;
56680;SDS011;42558;52.388;13.390;2023-03-16T01:54:32;11.59;;;3.80;;
56680;SDS011;42558;52.388;13.390;2023-03-16T01:57:07;7.79;;;3.04;;
56680;SDS011;42558;52.388;13.390;2023-03-16T01:59:56;11.59;;;3.04;;
56680;SDS011;42558;52.388;13.390;2023-03-16T02:02:54;12.54;;;3.61;;
56680;SDS011;42558;52.388;13.390;2023-03-16T02:05:48;12.16;;;4.18;;
56680;SDS011;42558;52.388;13.390;2023-03-16T02:08:24;10.26;;;2.66;;
56680;SDS011;42558;52.388;13.390;2023-03-16T02:10:56;13.49;;;3.61;;
56680;SDS011;42558;52.388;13.390;2023-03-16T02:13:27;9.69;;;3.61;;
56680;SDS011;42558;52.388;13.390;2023-03-16T02:15:59;18.62;;;3.99;;
56680;SDS011;42558;52.388;13.390;2023-03-16T02:18:30;9.69;;;3.42;;
56680;SDS011;42558;52.388;13.390;2023-03-16T02:21:06;15.58;;;3.80;;
56680;SDS011;42558;52.388;13.390;2023-03-16T02:23:45;19.38;;;3.42;;
56680;SDS011;42558;52.388;13.390;2023-03-16T02:26:47;12.35;;;3.04;;
56680;SDS011;42558;52.388;13.390;2023-03-16T02:32:28;12.16;;;3.61;;
56680;SDS011;42558;52.388;13.390;2023-03-16T02:35:00;8.55;;;3.42;;
56680;SDS011;42558;52.388;13.390;2023-03-16T02:37:31;8.93;;;3.80;;
56680;SDS011;42558;52.388;13.390;2023-03-16T02:43:08;8.93;;;3.23;;
56680;SDS011;42558;52.388;13.390;2023-03-16T02:45:47;13.68;;;3.80;;
56680;SDS011;42558;52.388;13.390;2023-03-16T02:51:40;12.54;;;3.42;;
56680;SDS011;42558;52.388;13.390;2023-03-16T02:54:12;8.36;;;2.85;;
56680;SDS011;42558;52.388;13.390;2023-03-16T02:56:42;10.07;;;3.42;;
56680;SDS011;42558;52.388;13.390;2023-03-16T02:59:12;10.64;;;3.23;;
56680;SDS011;42558;52.388;13.390;2023-03-16T03:01:42;11.40;;;3.61;;
56680;SDS011;42558;52.388;13.390;2023-03-16T03:04:12;10.64;;;3.42;;
56680;SDS011;42558;52.388;13.390;2023-03-16T03:06:42;8.93;;;3.04;;
56680;SDS011;42558;52.388;13.390;2023-03-16T03:09:12;14.44;;;4.18;;
56680;SDS011;42558;52.388;13.390;2023-03-16T03:11:43;11.97;;;3.80;;
56680;SDS011;42558;52.388;13.390;2023-03-16T03:14:15;11.59;;;3.80;;
56680;SDS011;42558;52.388;13.390;2023-03-16T03:16:45;9.88;;;4.18;;
56680;SDS011;42558;52.388;13.390;2023-03-16T03:19:15;10.26;;;3.80;;
56680;SDS011;42558;52.388;13.390;2023-03-16T03:21:45;12.92;;;3.42;;
56680;SDS011;42558;52.388;13.390;2023-03-16T03:24:15;9.50;;;3.61;;
56680;SDS011;42558;52.388;13.390;2023-03-16T03:26:45;13.11;;;3.42;;
56680;SDS011;42558;52.388;13.390;2023-03-16T03:29:14;9.12;;;3.23;;
56680;SDS011;42558;52.388;13.390;2023-03-16T03:31:44;8.55;;;3.23;;
56680;SDS011;42558;52.388;13.390;2023-03-16T03:34:14;9.69;;;2.85;;
56680;SDS011;42558;52.388;13.390;2023-03-16T03:36:44;10.45;;;3.61;;
56680;SDS011;42558;52.388;13.390;2023-03-16T03:39:14;9.69;;;3.23;;
56680;SDS011;42558;52.388;13.390;2023-03-16T03:41:44;14.25;;;3.42;;
56680;SDS011;42558;52.388;13.390;2023-03-16T03:44:14;9.12;;;3.42;;
56680;SDS011;42558;52.388;13.390;2023-03-16T03:46:43;14.82;;;3.80;;
56680;SDS011;42558;52.388;13.390;2023-03-16T03:49:14;10.26;;;2.85;;
56680;SDS011;42558;52.388;13.390;2023-03-16T03:51:44;10.07;;;4.37;;
56680;SDS011;42558;52.388;13.390;2023-03-16T03:54:15;10.26;;;3.42;;
56680;SDS011;42558;52.388;13.390;2023-03-16T03:56:45;9.69;;;4.37;;
56680;SDS011;42558;52.388;13.390;2023-03-16T03:59:15;9.12;;;3.23;;
56680;SDS011;42558;52.388;13.390;2023-03-16T04:01:45;10.07;;;3.42;;
56680;SDS011;42558;52.388;13.390;2023-03-16T04:04:15;10.07;;;3.42;;
56680;SDS011;42558;52.388;13.390;2023-03-16T04:06:45;14.63;;;3.23;;
56680;SDS011;42558;52.388;13.390;2023-03-16T04:09:16;18.24;;;3.99;;
56680;SDS011;42558;52.388;13.390;2023-03-16T04:11:46;13.30;;;3.61;;
56680;SDS011;42558;52.388;13.390;2023-03-16T04:14:15;10.64;;;3.61;;
56680;SDS011;42558;52.388;13.390;2023-03-16T04:16:45;10.26;;;3.23;;
56680;SDS011;42558;52.388;13.390;2023-03-16T04:19:15;10.26;;;3.42;;
56680;SDS011;42558;52.388;13.390;2023-03-16T04:21:45;7.98;;;3.61;;
56680;SDS011;42558;52.388;13.390;2023-03-16T04:24:16;11.59;;;3.80;;
56680;SDS011;42558;52.388;13.390;2023-03-16T04:26:46;12.73;;;4.18;;
56680;SDS011;42558;52.388;13.390;2023-03-16T04:29:17;13.68;;;3.23;;
56680;SDS011;42558;52.388;13.390;2023-03-16T04:31:47;15.20;;;3.61;;
56680;SDS011;42558;52.388;13.390;2023-03-16T04:34:17;9.50;;;3.61;;
56680;SDS011;42558;52.388;13.390;2023-03-16T04:36:47;14.44;;;3.80;;
56680;SDS011;42558;52.388;13.390;2023-03-16T04:39:17;10.64;;;3.99;;
56680;SDS011;42558;52.388;13.390;2023-03-16T04:41:48;10.83;;;3.61;;
56680;SDS011;42558;52.388;13.390;2023-03-16T04:44:19;11.21;;;3.42;;
56680;SDS011;42558;52.388;13.390;2023-03-16T04:46:48;12.92;;;3.61;;
56680;SDS011;42558;52.388;13.390;2023-03-16T04:49:16;12.92;;;3.99;;
56680;SDS011;42558;52.388;13.390;2023-03-16T04:51:44;10.45;;;3.42;;
56680;SDS011;42558;52.388;13.390;2023-03-16T04:54:13;7.98;;;3.42;;
56680;SDS011;42558;52.388;13.390;2023-03-16T04:56:41;11.40;;;3.99;;
56680;SDS011;42558;52.388;13.390;2023-03-16T04:59:09;11.59;;;4.18;;
56680;SDS011;42558;52.388;13.390;2023-03-16T05:01:38;15.96;;;4.18;;
56680;SDS011;42558;52.388;13.390;2023-03-16T05:04:06;10.07;;;3.99;;
56680;SDS011;42558;52.388;13.390;2023-03-16T05:06:35;11.40;;;3.04;;
56680;SDS011;42558;52.388;13.390;2023-03-16T05:09:03;13.49;;;3.99;;
56680;SDS011;42558;52.388;13.390;2023-03-16T05:11:35;7.60;;;3.80;;
56680;SDS011;42558;52.388;13.390;2023-03-16T05:14:03;11.21;;;3.99;;
56680;SDS011;42558;52.388;13.390;2023-03-16T05:16:31;11.59;;;3.61;;
56680;SDS011;42558;52.388;13.390;2023-03-16T05:19:00;11.78;;;3.42;;
56680;SDS011;42558;52.388;13.390;2023-03-16T05:21:28;9.69;;;3.80;;
56680;SDS011;42558;52.388;13.390;2023-03-16T05:24:00;8.55;;;3.61;;
56680;SDS011;42558;52.388;13.390;2023-03-16T05:26:30;12.35;;;3.80;;
56680;SDS011;42558;52.388;13.390;2023-03-16T05:29:00;12.54;;;3.80;;
56680;SDS011;42558;52.388;13.390;2023-03-16T05:31:30;13.30;;;3.61;;
56680;SDS011;42558;52.388;13.390;2023-03-16T05:34:05;9.50;;;3.99;;
56680;SDS011;42558;52.388;13.390;2023-03-16T05:36:35;14.06;;;3.99;;
56680;SDS011;42558;52.388;13.390;2023-03-16T05:39:05;12.73;;;3.61;;
56680;SDS011;42558;52.388;13.390;2023-03-16T05:41:36;16.15;;;3.61;;
56680;SDS011;42558;52.388;13.390;2023-03-16T05:44:07;10.45;;;3.42;;
56680;SDS011;42558;52.388;13.390;2023-03-16T05:46:37;12.54;;;3.61;;
56680;SDS011;42558;52.388;13.390;2023-03-16T05:49:07;11.21;;;4.18;;
56680;SDS011;42558;52.388;13.390;2023-03-16T05:51:35;9.12;;;3.80;;
56680;SDS011;42558;52.388;13.390;2023-03-16T05:54:04;12.16;;;3.99;;
56680;SDS011;42558;52.388;13.390;2023-03-16T05:56:32;8.74;;;3.42;;
56680;SDS011;42558;52.388;13.390;2023-03-16T05:59:00;15.96;;;3.04;;
56680;SDS011;42558;52.388;13.390;2023-03-16T06:01:29;7.79;;;3.04;;
56680;SDS011;42558;52.388;13.390;2023-03-16T06:03:57;11.59;;;3.99;;
56680;SDS011;42558;52.388;13.390;2023-03-16T06:06:26;9.88;;;3.04;;
56680;SDS011;42558;52.388;13.390;2023-03-16T06:08:54;12.16;;;3.23;;
56680;SDS011;42558;52.388;13.390;2023-03-16T06:11:22;12.92;;;3.42;;
56680;SDS011;42558;52.388;13.390;2023-03-16T06:13:51;11.40;;;3.42;;
56680;SDS011;42558;52.388;13.390;2023-03-16T06:16:19;13.87;;;3.80;;
56680;SDS011;42558;52.388;13.390;2023-03-16T06:18:48;11.21;;;3.61;;
56680;SDS011;42558;52.388;13.390;2023-03-16T06:21:16;11.40;;;4.37;;
56680;SDS011;42558;52.388;13.390;2023-03-16T06:23:44;11.78;;;4.37;;
56680;SDS011;42558;52.388;13.390;2023-03-16T06:26:13;20.33;;;4.56;;
56680;SDS011;42558;52.388;13.390;2023-03-16T06:28:41;17.67;;;4.37;;
56680;SDS011;42558;52.388;13.390;2023-03-16T06:31:10;11.40;;;5.13;;
56680;SDS011;42558;52.388;13.390;2023-03-16T06:33:38;13.30;;;4.56;;
56680;SDS011;42558;52.388;13.390;2023-03-16T06:36:07;13.49;;;3.99;;
56680;SDS011;42558;52.388;13.390;2023-03-16T06:38:35;9.50;;;3.99;;
56680;SDS011;42558;52.388;13.390;2023-03-16T06:41:03;12.16;;;3.80;;
56680;SDS011;42558;52.388;13.390;2023-03-16T06:43:32;13.49;;;4.37;;
56680;SDS011;42558;52.388;13.390;2023-03-16T06:46:00;16.34;;;4.75;;
56680;SDS011;42558;52.388;13.390;2023-03-16T06:48:29;15.01;;;4.75;;
56680;SDS011;42558;52.388;13.390;2023-03-16T06:50:59;13.49;;;5.32;;
56680;SDS011;42558;52.388;13.390;2023-03-16T06:53:29;13.87;;;5.13;;
56680;SDS011;42558;52.388;13.390;2023-03-16T06:55:59;11.02;;;4.56;;
56680;SDS011;42558;52.388;13.390;2023-03-16T06:58:29;13.49;;;5.70;;
56680;SDS011;42558;52.388;13.390;2023-03-16T07:01:01;11.97;;;4.75;;
56680;SDS011;42558;52.388;13.390;2023-03-16T07:03:32;13.87;;;4.94;;
56680;SDS011;42558;52.388;13.390;2023-03-16T07:06:02;12.16;;;5.51;;
56680;SDS011;42558;52.388;13.390;2023-03-16T07:08:33;15.01;;;6.27;;
56680;SDS011;42558;52.388;13.390;2023-03-16T07:11:03;18.43;;;5.70;;
56680;SDS011;42558;52.388;13.390;2023-03-16T07:13:33;16.34;;;6.84;;
56680;SDS011;42558;52.388;13.390;2023-03-16T07:16:04;20.71;;;6.08;;
56680;SDS011;42558;52.388;13.390;2023-03-16T07:18:34;14.82;;;5.51;;
56680;SDS011;42558;52.388;13.390;2023-03-16T07:21:06;16.72;;;6.08;;
56680;SDS011;42558;52.388;13.390;2023-03-16T07:23:36;14.25;;;6.46;;
56680;SDS011;42558;52.388;13.390;2023-03-16T07:26:06;14.44;;;6.46;;
56680;SDS011;42558;52.388;13.390;2023-03-16T07:28:37;15.96;;;6.27;;
56680;SDS011;42558;52.388;13.390;2023-03-16T07:31:08;15.01;;;5.70;;
56680;SDS011;42558;52.388;13.390;2023-03-16T07:33:38;13.11;;;5.70;;
56680;SDS011;42558;52.388;13.390;2023-03-16T07:36:08;15.20;;;5.70;;
56680;SDS011;42558;52.388;13.390;2023-03-16T07:38:39;15.01;;;5.70;;
56680;SDS011;42558;52.388;13.390;2023-03-16T07:41:10;18.43;;;6.46;;
56680;SDS011;42558;52.388;13.390;2023-03-16T07:43:39;17.67;;;6.65;;
56680;SDS011;42558;52.388;13.390;2023-03-16T07:46:10;18.81;;;6.08;;
56680;SDS011;42558;52.388;13.390;2023-03-16T07:48:44;16.72;;;6.46;;
56680;SDS011;42558;52.388;13.390;2023-03-16T07:51:14;18.62;;;6.65;;
56680;SDS011;42558;52.388;13.390;2023-03-16T07:53:44;14.63;;;6.08;;
56680;SDS011;42558;52.388;13.390;2023-03-16T07:56:14;14.06;;;5.89;;
56680;SDS011;42558;52.388;13.390;2023-03-16T07:58:44;15.39;;;5.32;;
56680;SDS011;42558;52.388;13.390;2023-03-16T08:01:14;14.44;;;5.89;;
56680;SDS011;42558;52.388;13.390;2023-03-16T08:03:43;13.11;;;5.70;;
56680;SDS011;42558;52.388;13.390;2023-03-16T08:06:14;14.06;;;6.46;;
56680;SDS011;42558;52.388;13.390;2023-03-16T08:08:43;15.01;;;5.89;;
56680;SDS011;42558;52.388;13.390;2023-03-16T08:11:13;14.63;;;6.84;;
56680;SDS011;42558;52.388;13.390;2023-03-16T08:13:43;18.43;;;6.65;;
56680;SDS011;42558;52.388;13.390;2023-03-16T08:16:15;14.25;;;5.51;;
56680;SDS011;42558;52.388;13.390;2023-03-16T08:18:45;13.30;;;5.13;;
56680;SDS011;42558;52.388;13.390;2023-03-16T08:21:16;14.82;;;4.94;;
56680;SDS011;42558;52.388;13.390;2023-03-16T08:23:47;16.34;;;6.27;;
56680;SDS011;42558;52.388;13.390;2023-03-16T08:26:21;15.20;;;6.08;;
56680;SDS011;42558;52.388;13.390;2023-03-16T08:28:52;18.43;;;6.08;;
56680;SDS011;42558;52.388;13.390;2023-03-16T08:31:22;13.11;;;5.32;;
56680;SDS011;42558;52.388;13.390;2023-03-16T08:33:53;16.53;;;6.08;;
56680;SDS011;42558;52.388;13.390;2023-03-16T08:36:24;18.62;;;5.70;;
56680;SDS011;42558;52.388;13.390;2023-03-16T08:38:54;14.63;;;5.13;;
56680;SDS011;42558;52.388;13.390;2023-03-16T08:41:36;15.77;;;5.89;;
56680;SDS011;42558;52.388;13.390;2023-03-16T08:44:06;12.16;;;4.75;;
56680;SDS011;42558;52.388;13.390;2023-03-16T08:46:36;15.58;;;5.70;;
56680;SDS011;42558;52.388;13.390;2023-03-16T08:49:05;14.25;;;5.32;;
56680;SDS011;42558;52.388;13.390;2023-03-16T08:51:33;13.11;;;4.94;;
56680;SDS011;42558;52.388;13.390;2023-03-16T08:54:01;14.63;;;5.70;;
56680;SDS011;42558;52.388;13.390;2023-03-16T08:56:30;11.21;;;4.56;;
56680;SDS011;42558;52.388;13.390;2023-03-16T08:58:58;9.88;;;4.94;;
56680;SDS011;42558;52.388;13.390;2023-03-16T09:01:26;13.30;;;4.37;;
56680;SDS011;42558;52.388;13.390;2023-03-16T09:03:55;14.06;;;4.75;;
56680;SDS011;42558;52.388;13.390;2023-03-16T09:06:23;15.58;;;4.37;;
56680;SDS011;42558;52.388;13.390;2023-03-16T09:08:52;11.78;;;4.18;;
56680;SDS011;42558;52.388;13.390;2023-03-16T09:11:20;11.21;;;4.37;;
56680;SDS011;42558;52.388;13.390;2023-03-16T09:13:49;11.78;;;4.37;;
56680;SDS011;42558;52.388;13.390;2023-03-16T09:16:21;12.16;;;3.80;;
56680;SDS011;42558;52.388;13.390;2023-03-16T09:18:54;8.93;;;3.61;;
56680;SDS011;42558;52.388;13.390;2023-03-16T09:21:24;11.97;;;3.80;;
56680;SDS011;42558;52.388;13.390;2023-03-16T09:23:54;11.21;;;3.23;;
56680;SDS011;42558;52.388;13.390;2023-03-16T09:26:24;11.78;;;3.61;;
56680;SDS011;42558;52.388;13.390;2023-03-16T09:28:54;12.92;;;3.42;;
56680;SDS011;42558;52.388;13.390;2023-03-16T09:31:24;14.44;;;3.61;;
56680;SDS011;42558;52.388;13.390;2023-03-16T09:33:55;11.40;;;2.85;;
56680;SDS011;42558;52.388;13.390;2023-03-16T09:36:25;10.83;;;3.42;;
56680;SDS011;42558;52.388;13.390;2023-03-16T09:38:55;14.63;;;3.42;;
56680;SDS011;42558;52.388;13.390;2023-03-16T09:44:28;10.07;;;3.61;;
56680;SDS011;42558;52.388;13.390;2023-03-16T09:47:08;14.63;;;3.42;;
56680;SDS011;42558;52.388;13.390;2023-03-16T09:49:46;11.02;;;3.42;;
56680;SDS011;42558;52.388;13.390;2023-03-16T09:55:36;10.26;;;3.04;;
56680;SDS011;42558;52.388;13.390;2023-03-16T10:02:15;10.64;;;3.80;;
56680;SDS011;42558;52.388;13.390;2023-03-16T10:05:32;11.21;;;3.61;;
56680;SDS011;42558;52.388;13.390;2023-03-16T10:08:14;10.26;;;3.23;;
56680;SDS011;42558;52.388;13.390;2023-03-16T10:11:02;7.60;;;2.85;;
56680;SDS011;42558;52.388;13.390;2023-03-16T10:19:20;14.25;;;3.80;;
56680;SDS011;42558;52.388;13.390;2023-03-16T10:22:02;8.36;;;2.85;;
56680;SDS011;42558;52.388;13.390;2023-03-16T10:28:01;11.21;;;2.28;;
56680;SDS011;42558;52.388;13.390;2023-03-16T10:30:33;8.36;;;2.47;;
56680;SDS011;42558;52.388;13.390;2023-03-16T10:39:11;8.55;;;2.47;;
56680;SDS011;42558;52.388;13.390;2023-03-16T10:41:53;7.22;;;2.66;;
56680;SDS011;42558;52.388;13.390;2023-03-16T10:44:25;11.97;;;3.04;;
56680;SDS011;42558;52.388;13.390;2023-03-16T10:47:05;8.17;;;3.23;;
56680;SDS011;42558;52.388;13.390;2023-03-16T10:49:40;9.50;;;2.47;;
56680;SDS011;42558;52.388;13.390;2023-03-16T10:55:23;9.69;;;2.66;;
56680;SDS011;42558;52.388;13.390;2023-03-16T10:58:02;8.93;;;2.28;;
56680;SDS011;42558;52.388;13.390;2023-03-16T11:00:36;7.98;;;2.66;;
56680;SDS011;42558;52.388;13.390;2023-03-16T11:03:39;6.27;;;1.71;;
56680;SDS011;42558;52.388;13.390;2023-03-16T11:06:19;10.07;;;2.66;;
56680;SDS011;42558;52.388;13.390;2023-03-16T11:11:56;13.49;;;2.66;;
56680;SDS011;42558;52.388;13.390;2023-03-16T11:14:27;9.69;;;2.66;;
56680;SDS011;42558;52.388;13.390;2023-03-16T11:17:14;12.73;;;2.66;;
56680;SDS011;42558;52.388;13.390;2023-03-16T11:22:24;8.55;;;2.66;;
56680;SDS011;42558;52.388;13.390;2023-03-16T11:25:08;7.03;;;2.28;;
56680;SDS011;42558;52.388;13.390;2023-03-16T11:27:52;6.27;;;2.09;;
56680;SDS011;42558;52.388;13.390;2023-03-16T11:33:46;7.41;;;2.28;;
56680;SDS011;42558;52.388;13.390;2023-03-16T11:39:38;8.93;;;2.85;;
56680;SDS011;42558;52.388;13.390;2023-03-16T11:42:32;7.41;;;2.28;;
56680;SDS011;42558;52.388;13.390;2023-03-16T11:45:22;8.93;;;2.28;;
56680;SDS011;42558;52.388;13.390;2023-03-16T11:48:08;9.12;;;2.47;;
56680;SDS011;42558;52.388;13.390;2023-03-16T11:56:40;10.64;;;2.66;;
56680;SDS011;42558;52.388;13.390;2023-03-16T12:02:26;7.03;;;2.47;;
56680;SDS011;42558;52.388;13.390;2023-03-16T12:05:44;7.79;;;2.09;;
56680;SDS011;42558;52.388;13.390;2023-03-16T12:11:47;8.17;;;1.90;;
56680;SDS011;42558;52.388;13.390;2023-03-16T12:14:30;8.93;;;2.09;;
56680;SDS011;42558;52.388;13.390;2023-03-16T12:17:19;8.36;;;2.09;;
56680;SDS011;42558;52.388;13.390;2023-03-16T12:20:16;7.60;;;1.90;;
56680;SDS011;42558;52.388;13.390;2023-03-16T12:22:53;28.31;;;3.04;;
56680;SDS011;42558;52.388;13.390;2023-03-16T12:25:34;8.55;;;1.90;;
56680;SDS011;42558;52.388;13.390;2023-03-16T12:28:23;5.70;;;1.71;;
56680;SDS011;42558;52.388;13.390;2023-03-16T12:34:08;6.65;;;1.90;;
56680;SDS011;42558;52.388;13.390;2023-03-16T12:40:22;7.41;;;2.09;;
56680;SDS011;42558;52.388;13.390;2023-03-16T12:43:26;8.36;;;2.09;;
56680;SDS011;42558;52.388;13.390;2023-03-16T12:48:56;7.79;;;2.28;;
56680;SDS011;42558;52.388;13.390;2023-03-16T12:51:38;6.84;;;1.90;;
56680;SDS011;42558;52.388;13.390;2023-03-16T12:54:24;6.65;;;1.90;;
56680;SDS011;42558;52.388;13.390;2023-03-16T12:57:06;7.41;;;2.09;;
56680;SDS011;42558;52.388;13.390;2023-03-16T12:59:43;8.93;;;2.09;;
56680;SDS011;42558;52.388;13.390;2023-03-16T13:02:23;8.36;;;2.09;;
56680;SDS011;42558;52.388;13.390;2023-03-16T13:05:00;7.79;;;1.71;;
56680;SDS011;42558;52.388;13.390;2023-03-16T13:07:49;7.41;;;2.28;;
56680;SDS011;42558;52.388;13.390;2023-03-16T13:10:20;6.84;;;1.71;;
56680;SDS011;42558;52.388;13.390;2023-03-16T13:12:50;7.41;;;1.90;;
56680;SDS011;42558;52.388;13.390;2023-03-16T13:20:58;7.79;;;1.90;;
56680;SDS011;42558;52.388;13.390;2023-03-16T13:23:58;7.22;;;1.71;;
56680;SDS011;42558;52.388;13.390;2023-03-16T13:26:45;4.94;;;1.33;;
56680;SDS011;42558;52.388;13.390;2023-03-16T13:29:20;7.79;;;1.90;;
56680;SDS011;42558;52.388;13.390;2023-03-16T13:32:07;7.98;;;2.28;;
56680;SDS011;42558;52.388;13.390;2023-03-16T13:34:48;7.98;;;2.85;;
56680;SDS011;42558;52.388;13.390;2023-03-16T13:37:20;9.31;;;2.28;;
56680;SDS011;42558;52.388;13.390;2023-03-16T13:40:00;8.74;;;2.28;;
56680;SDS011;42558;52.388;13.390;2023-03-16T13:42:33;8.55;;;2.09;;
56680;SDS011;42558;52.388;13.390;2023-03-16T13:45:26;8.74;;;1.90;;
56680;SDS011;42558;52.388;13.390;2023-03-16T13:47:59;8.17;;;1.90;;
56680;SDS011;42558;52.388;13.390;2023-03-16T13:50:31;6.27;;;2.47;;
56680;SDS011;42558;52.388;13.390;2023-03-16T13:53:03;9.31;;;2.09;;
56680;SDS011;42558;52.388;13.390;2023-03-16T13:55:45;7.98;;;2.28;;
56680;SDS011;42558;52.388;13.390;2023-03-16T13:58:28;6.08;;;1.71;;
56680;SDS011;42558;52.388;13.390;2023-03-16T14:01:13;6.84;;;2.66;;
56680;SDS011;42558;52.388;13.390;2023-03-16T14:03:54;5.70;;;1.90;;
56680;SDS011;42558;52.388;13.390;2023-03-16T14:06:29;5.32;;;1.90;;
56680;SDS011;42558;52.388;13.390;2023-03-16T14:09:03;5.89;;;1.71;;
56680;SDS011;42558;52.388;13.390;2023-03-16T14:11:36;8.36;;;1.90;;
56680;SDS011;42558;52.388;13.390;2023-03-16T14:14:15;5.51;;;1.71;;
56680;SDS011;42558;52.388;13.390;2023-03-16T14:16:52;5.51;;;1.90;;
56680;SDS011;42558;52.388;13.390;2023-03-16T14:19:25;5.32;;;1.71;;
56680;SDS011;42558;52.388;13.390;2023-03-16T14:22:03;8.74;;;2.09;;
56680;SDS011;42558;52.388;13.390;2023-03-16T14:24:36;7.60;;;1.52;;
56680;SDS011;42558;52.388;13.390;2023-03-16T14:32:59;7.22;;;2.09;;
56680;SDS011;42558;52.388;13.390;2023-03-16T14:35:38;8.74;;;1.90;;
56680;SDS011;42558;52.388;13.390;2023-03-16T14:38:20;6.46;;;2.09;;
56680;SDS011;42558;52.388;13.390;2023-03-16T14:41:02;6.65;;;1.90;;
56680;SDS011;42558;52.388;13.390;2023-03-16T14:43:44;5.32;;;1.52;;
56680;SDS011;42558;52.388;13.390;2023-03-16T14:46:36;5.70;;;1.71;;
56680;SDS011;42558;52.388;13.390;2023-03-16T14:51:54;5.51;;;1.71;;
56680;SDS011;42558;52.388;13.390;2023-03-16T14:54:28;6.46;;;2.09;;
56680;SDS011;42558;52.388;13.390;2023-03-16T14:57:03;6.84;;;1.71;;
56680;SDS011;42558;52.388;13.390;2023-03-16T14:59:34;6.08;;;1.52;;
56680;SDS011;42558;52.388;13.390;2023-03-16T15:02:06;5.70;;;1.71;;
56680;SDS011;42558;52.388;13.390;2023-03-16T15:04:49;6.84;;;2.09;;
56680;SDS011;42558;52.388;13.390;2023-03-16T15:07:26;5.32;;;1.33;;
56680;SDS011;42558;52.388;13.390;2023-03-16T15:10:02;7.79;;;1.52;;
56680;SDS011;42558;52.388;13.390;2023-03-16T15:12:35;8.17;;;1.90;;
56680;SDS011;42558;52.388;13.390;2023-03-16T15:15:17;4.75;;;1.33;;
56680;SDS011;42558;52.388;13.390;2023-03-16T15:17:47;5.51;;;1.52;;
56680;SDS011;42558;52.388;13.390;2023-03-16T15:20:20;8.55;;;1.90;;
56680;SDS011;42558;52.388;13.390;2023-03-16T15:22:52;4.75;;;1.33;;
56680;SDS011;42558;52.388;13.390;2023-03-16T15:25:31;8.74;;;1.52;;
56680;SDS011;42558;52.388;13.390;2023-03-16T15:28:18;7.79;;;1.90;;
56680;SDS011;42558;52.388;13.390;2023-03-16T15:30:50;7.98;;;1.90;;
56680;SDS011;42558;52.388;13.390;2023-03-16T15:33:19;5.51;;;1.52;;
56680;SDS011;42558;52.388;13.390;2023-03-16T15:35:51;6.27;;;1.52;;
56680;SDS011;42558;52.388;13.390;2023-03-16T15:38:32;7.60;;;1.90;;
56680;SDS011;42558;52.388;13.390;2023-03-16T15:41:11;5.70;;;1.71;;
56680;SDS011;42558;52.388;13.390;2023-03-16T15:43:43;6.08;;;1.52;;
56680;SDS011;42558;52.388;13.390;2023-03-16T15:46:14;7.03;;;1.52;;
56680;SDS011;42558;52.388;13.390;2023-03-16T15:48:45;8.55;;;2.09;;
56680;SDS011;42558;52.388;13.390;2023-03-16T15:51:27;7.03;;;1.71;;
56680;SDS011;42558;52.388;13.390;2023-03-16T15:54:01;9.12;;;1.71;;
56680;SDS011;42558;52.388;13.390;2023-03-16T15:56:36;6.08;;;1.33;;
56680;SDS011;42558;52.388;13.390;2023-03-16T15:59:22;5.32;;;1.14;;
56680;SDS011;42558;52.388;13.390;2023-03-16T16:01:54;8.55;;;2.09;;
56680;SDS011;42558;52.388;13.390;2023-03-16T16:04:24;6.65;;;1.71;;
56680;SDS011;42558;52.388;13.390;2023-03-16T16:06:53;8.36;;;1.52;;
56680;SDS011;42558;52.388;13.390;2023-03-16T16:09:21;8.74;;;1.90;;
56680;SDS011;42558;52.388;13.390;2023-03-16T16:11:50;6.27;;;1.71;;
56680;SDS011;42558;52.388;13.390;2023-03-16T16:14:23;7.60;;;1.52;;
56680;SDS011;42558;52.388;13.390;2023-03-16T16:16:55;5.89;;;2.28;;
56680;SDS011;42558;52.388;13.390;2023-03-16T16:19:24;6.08;;;1.71;;
56680;SDS011;42558;52.388;13.390;2023-03-16T16:21:55;5.89;;;1.90;;
56680;SDS011;42558;52.388;13.390;2023-03-16T16:24:25;4.94;;;1.71;;
56680;SDS011;42558;52.388;13.390;2023-03-16T16:26:55;8.93;;;2.28;;
56680;SDS011;42558;52.388;13.390;2023-03-16T16:29:30;6.08;;;1.71;;
56680;SDS011;42558;52.388;13.390;2023-03-16T16:32:02;6.46;;;1.71;;
56680;SDS011;42558;52.388;13.390;2023-03-16T16:34:32;7.41;;;1.52;;